Terminal Aerodrome Forecast
Issued by NWS

Home | Current Version | Previous Version | Graphics & Text | Print | Product List | Glossary On
Versions: 1 2 3 4 5 6 7 8 9 10 11 12 13 14 15 16 17 18 19 20 21 22 23 24 25
000
FTUS43 KICT 201741
TAFSLN
TAF
KSLN 201741Z 2018/2118 19013KT P6SM BKN200
     FM210700 18008KT 3SM BR OVC025
     FM211000 18008KT 1SM BR OVC007
      TEMPO 2110/2114 1/2SM FG OVC002
     FM211400 17008KT 3SM -DZ BR OVC007=

USA.gov is the U.S. government's official web portal to all federal, state and local government web resources and services.